Glade Hill, Virginia
Current Conditions -  °F | °C
As of 8:54 AM on Thursday 23 Oct 2014 (Local Time) from KROA Reporting Station
Scattered Clouds Scattered Clouds  
Wind Chill: 11°   Ceiling: Unl
Heat Index: 11°   Visibility: 10mi
Dew Point:   Wind: 18mph
Humidity: 61%   Direction: 330°NNW
Pressure: 30.1"   Gusts: 25mph
Location:  37.0073°N, 79.7681°W
Report Text: KROA 231254Z 33016G22KT 10SM SCT038 11/03 A3010 RMK AO2 SLP190 T01060033
Loading
Personal Weather Stations






























Interactive Weather Map
Tropical Storm Tracking
New forecast layout! Learn more

10-Day Weather Forecast

Advertisements
Track Severe Weather on mobile